sensor_id;sensor_type;location;lat;lon;timestamp;temperature;humidity
22895;DHT22;11614;52.494;6.976;2022-08-19T00:50:04;15.70;99.90
22895;DHT22;11614;52.494;6.976;2022-08-19T01:09:39;15.60;99.90
22895;DHT22;11614;52.494;6.976;2022-08-19T01:12:05;15.60;99.90
22895;DHT22;11614;52.494;6.976;2022-08-19T01:16:57;15.40;99.90
22895;DHT22;11614;52.494;6.976;2022-08-19T01:19:29;15.50;99.90
22895;DHT22;11614;52.494;6.976;2022-08-19T01:22:17;15.40;99.90
22895;DHT22;11614;52.494;6.976;2022-08-19T01:24:45;15.40;99.90
22895;DHT22;11614;52.494;6.976;2022-08-19T01:27:10;15.50;99.90
22895;DHT22;11614;52.494;6.976;2022-08-19T01:29:38;15.30;99.90
22895;DHT22;11614;52.494;6.976;2022-08-19T01:34:31;15.20;99.90
22895;DHT22;11614;52.494;6.976;2022-08-19T01:36:59;15.00;99.90
22895;DHT22;11614;52.494;6.976;2022-08-19T01:41:53;15.40;99.90
22895;DHT22;11614;52.494;6.976;2022-08-19T01:44:20;15.20;99.90
22895;DHT22;11614;52.494;6.976;2022-08-19T01:46:49;15.10;99.90
22895;DHT22;11614;52.494;6.976;2022-08-19T01:49:17;15.30;99.90
22895;DHT22;11614;52.494;6.976;2022-08-19T01:51:43;15.30;99.90
22895;DHT22;11614;52.494;6.976;2022-08-19T01:54:11;15.10;99.90
22895;DHT22;11614;52.494;6.976;2022-08-19T01:56:36;15.20;99.90
22895;DHT22;11614;52.494;6.976;2022-08-19T01:59:09;15.00;99.90
22895;DHT22;11614;52.494;6.976;2022-08-19T02:01:35;15.00;99.90
22895;DHT22;11614;52.494;6.976;2022-08-19T02:04:01;14.90;99.90
22895;DHT22;11614;52.494;6.976;2022-08-19T02:06:27;15.20;99.90
22895;DHT22;11614;52.494;6.976;2022-08-19T02:08:53;14.90;99.90
22895;DHT22;11614;52.494;6.976;2022-08-19T02:11:31;14.90;99.90
22895;DHT22;11614;52.494;6.976;2022-08-19T02:14:00;14.80;99.90
22895;DHT22;11614;52.494;6.976;2022-08-19T02:16:27;14.80;99.90
22895;DHT22;11614;52.494;6.976;2022-08-19T02:18:53;14.80;99.90
22895;DHT22;11614;52.494;6.976;2022-08-19T02:21:22;14.70;99.90
22895;DHT22;11614;52.494;6.976;2022-08-19T02:23:48;14.90;99.90
22895;DHT22;11614;52.494;6.976;2022-08-19T02:28:41;14.70;99.90
22895;DHT22;11614;52.494;6.976;2022-08-19T02:31:12;14.60;99.90
22895;DHT22;11614;52.494;6.976;2022-08-19T02:33:40;14.70;99.90
22895;DHT22;11614;52.494;6.976;2022-08-19T02:36:07;14.70;99.90
22895;DHT22;11614;52.494;6.976;2022-08-19T02:38:33;14.60;99.90
22895;DHT22;11614;52.494;6.976;2022-08-19T02:41:02;14.50;99.90
22895;DHT22;11614;52.494;6.976;2022-08-19T02:43:30;14.50;99.90
22895;DHT22;11614;52.494;6.976;2022-08-19T02:45:56;14.30;99.90
22895;DHT22;11614;52.494;6.976;2022-08-19T02:48:24;14.50;99.90
22895;DHT22;11614;52.494;6.976;2022-08-19T02:50:51;14.40;99.90
22895;DHT22;11614;52.494;6.976;2022-08-19T02:53:22;14.50;99.90
22895;DHT22;11614;52.494;6.976;2022-08-19T02:55:49;14.40;99.90
22895;DHT22;11614;52.494;6.976;2022-08-19T02:58:15;14.40;99.90
22895;DHT22;11614;52.494;6.976;2022-08-19T03:00:43;14.10;99.90
22895;DHT22;11614;52.494;6.976;2022-08-19T03:03:09;14.40;99.90
22895;DHT22;11614;52.494;6.976;2022-08-19T03:05:34;14.10;99.90
22895;DHT22;11614;52.494;6.976;2022-08-19T03:08:00;14.30;99.90
22895;DHT22;11614;52.494;6.976;2022-08-19T03:12:52;14.30;99.90
22895;DHT22;11614;52.494;6.976;2022-08-19T03:15:17;14.50;99.90
22895;DHT22;11614;52.494;6.976;2022-08-19T03:17:43;14.30;99.90
22895;DHT22;11614;52.494;6.976;2022-08-19T03:20:09;14.30;99.90
22895;DHT22;11614;52.494;6.976;2022-08-19T03:25:00;14.20;99.90
22895;DHT22;11614;52.494;6.976;2022-08-19T03:29:52;14.20;99.90
22895;DHT22;11614;52.494;6.976;2022-08-19T03:32:18;13.90;99.90
22895;DHT22;11614;52.494;6.976;2022-08-19T03:37:11;14.20;99.90
22895;DHT22;11614;52.494;6.976;2022-08-19T03:39:40;14.30;99.90
22895;DHT22;11614;52.494;6.976;2022-08-19T03:42:08;14.20;99.90
22895;DHT22;11614;52.494;6.976;2022-08-19T03:44:34;14.10;99.90
22895;DHT22;11614;52.494;6.976;2022-08-19T03:49:30;14.20;99.90
22895;DHT22;11614;52.494;6.976;2022-08-19T03:51:57;14.40;99.90
22895;DHT22;11614;52.494;6.976;2022-08-19T03:54:25;16.00;99.90
22895;DHT22;11614;52.494;6.976;2022-08-19T03:56:53;14.00;99.90
22895;DHT22;11614;52.494;6.976;2022-08-19T03:59:25;14.10;99.90
22895;DHT22;11614;52.494;6.976;2022-08-19T04:01:54;14.10;99.90
22895;DHT22;11614;52.494;6.976;2022-08-19T04:04:19;14.00;99.90
22895;DHT22;11614;52.494;6.976;2022-08-19T04:06:45;14.20;99.90
22895;DHT22;11614;52.494;6.976;2022-08-19T04:09:12;14.00;99.90
22895;DHT22;11614;52.494;6.976;2022-08-19T04:11:41;14.00;99.90
22895;DHT22;11614;52.494;6.976;2022-08-19T04:19:01;14.00;99.90
22895;DHT22;11614;52.494;6.976;2022-08-19T04:21:27;13.70;99.90
22895;DHT22;11614;52.494;6.976;2022-08-19T04:23:54;13.90;99.90
22895;DHT22;11614;52.494;6.976;2022-08-19T04:26:23;13.90;99.90
22895;DHT22;11614;52.494;6.976;2022-08-19T04:28:49;14.20;99.90
22895;DHT22;11614;52.494;6.976;2022-08-19T04:31:19;13.80;99.90
22895;DHT22;11614;52.494;6.976;2022-08-19T04:33:45;13.80;99.90
22895;DHT22;11614;52.494;6.976;2022-08-19T04:36:21;13.80;99.90
22895;DHT22;11614;52.494;6.976;2022-08-19T04:38:48;14.10;99.90
22895;DHT22;11614;52.494;6.976;2022-08-19T04:41:14;14.30;99.90
22895;DHT22;11614;52.494;6.976;2022-08-19T04:46:24;14.10;99.90
22895;DHT22;11614;52.494;6.976;2022-08-19T04:53:43;14.20;99.90
22895;DHT22;11614;52.494;6.976;2022-08-19T04:56:14;14.00;99.90
22895;DHT22;11614;52.494;6.976;2022-08-19T04:58:43;14.20;99.90
22895;DHT22;11614;52.494;6.976;2022-08-19T05:01:12;14.30;99.90
22895;DHT22;11614;52.494;6.976;2022-08-19T05:03:38;14.30;99.90
22895;DHT22;11614;52.494;6.976;2022-08-19T05:06:13;14.40;99.90
22895;DHT22;11614;52.494;6.976;2022-08-19T05:08:40;14.50;99.90
22895;DHT22;11614;52.494;6.976;2022-08-19T05:11:14;14.40;99.90
22895;DHT22;11614;52.494;6.976;2022-08-19T05:13:40;14.60;99.90
22895;DHT22;11614;52.494;6.976;2022-08-19T05:16:06;14.70;99.90
22895;DHT22;11614;52.494;6.976;2022-08-19T05:18:32;16.00;99.90
22895;DHT22;11614;52.494;6.976;2022-08-19T05:21:17;15.40;99.90
22895;DHT22;11614;52.494;6.976;2022-08-19T05:31:21;17.90;99.90
22895;DHT22;11614;52.494;6.976;2022-08-19T05:48:33;18.60;99.90
22895;DHT22;11614;52.494;6.976;2022-08-19T05:51:06;18.50;99.90
22895;DHT22;11614;52.494;6.976;2022-08-19T05:53:34;18.20;99.90
22895;DHT22;11614;52.494;6.976;2022-08-19T05:56:07;18.20;99.90
22895;DHT22;11614;52.494;6.976;2022-08-19T05:58:34;17.90;99.90
22895;DHT22;11614;52.494;6.976;2022-08-19T06:03:32;18.20;99.90
22895;DHT22;11614;52.494;6.976;2022-08-19T06:05:59;18.40;99.90
22895;DHT22;11614;52.494;6.976;2022-08-19T06:08:26;18.30;99.90
22895;DHT22;11614;52.494;6.976;2022-08-19T06:10:52;18.50;99.90
22895;DHT22;11614;52.494;6.976;2022-08-19T22:53:07;20.40;99.90
22895;DHT22;11614;52.494;6.976;2022-08-19T22:55:35;20.30;99.90
22895;DHT22;11614;52.494;6.976;2022-08-19T23:02:54;20.10;99.90
22895;DHT22;11614;52.494;6.976;2022-08-19T23:05:23;20.10;99.90
22895;DHT22;11614;52.494;6.976;2022-08-19T23:07:50;20.10;99.90
22895;DHT22;11614;52.494;6.976;2022-08-19T23:10:16;20.10;99.90
22895;DHT22;11614;52.494;6.976;2022-08-19T23:12:46;20.20;99.90
22895;DHT22;11614;52.494;6.976;2022-08-19T23:15:21;20.10;99.90
22895;DHT22;11614;52.494;6.976;2022-08-19T23:17:50;20.10;99.90
22895;DHT22;11614;52.494;6.976;2022-08-19T23:20:17;21.50;99.90
22895;DHT22;11614;52.494;6.976;2022-08-19T23:22:44;20.00;99.90
22895;DHT22;11614;52.494;6.976;2022-08-19T23:25:15;20.10;99.90
22895;DHT22;11614;52.494;6.976;2022-08-19T23:27:43;20.00;99.90
22895;DHT22;11614;52.494;6.976;2022-08-19T23:30:27;20.00;99.90
22895;DHT22;11614;52.494;6.976;2022-08-19T23:32:59;20.00;99.90
22895;DHT22;11614;52.494;6.976;2022-08-19T23:35:26;19.90;99.90
22895;DHT22;11614;52.494;6.976;2022-08-19T23:37:56;20.00;99.90
22895;DHT22;11614;52.494;6.976;2022-08-19T23:42:49;20.00;99.90
22895;DHT22;11614;52.494;6.976;2022-08-19T23:45:16;20.00;99.90
22895;DHT22;11614;52.494;6.976;2022-08-19T23:47:42;20.00;99.90
22895;DHT22;11614;52.494;6.976;2022-08-19T23:50:09;20.20;99.90
22895;DHT22;11614;52.494;6.976;2022-08-19T23:52:48;20.10;99.90
22895;DHT22;11614;52.494;6.976;2022-08-19T23:55:15;20.00;99.90
